Messwerte Poplar Bluff

Temperatur

Temperatur
°C
1594368000 3.00 3.00 23
1594371600 4.00 4.00 23
1594375200 5.00 5.00 23
1594378800 6.00 6.00 22
1594382400 7.00 7.00 23
1594386000 8.00 8.00 26
1594389600 9.00 9.00 27
1594393200 10.00 10.00 28
1594396800 11.00 11.00 30
1594400400 12.00 12.00 31
1594404000 13.00 13.00 31
1594407600 14.00 14.00 33
1594411200 15.00 15.00 33
1594414800 16.00 16.00 34
1594418400 17.00 17.00 34
1594422000 18.00 18.00 34
1594425600 19.00 19.00 33
1594429200 20.00 20.00 30
1594432800 21.00 21.00 27
1594436400 22.00 22.00 25
1594440000 23.00 23.00 23
1594443600 0.00 0.00 23
1594447200 1.00 1.00 22
1594450800 2.00 2.00 21

Aktuellste Messwerte

Wettercharakter
Wetter: klar
Temperatur
21 °C
Feuchtigkeit
85 %
Wind
0 km/h, -
Luftdruck
1015 hPa
Messzeit: 11. Juli 2020, 3.00Datenquelle: METAR

Weitere Messstationen in der Nähe

Messstation Temperatur Entfernung
Walnut Ridge 24 °C 82 km
Cape Girardeau 19 °C 95 km
Blytheville 23 °C 109 km
Farmington Airport 19 °C 111 km
Cairo 21 °C 116 km
West Plains 22 °C 128 km
Dyersburg 22 °C 128 km

Wind

Windrichtung Böen Mittelwind
° km/h km/h
1594368000 3.00 2.00 - 3.00 250° 5
1594371600 4.00 3.00 - 4.00 270° 5
1594375200 5.00 4.00 - 5.00 310° 5
1594378800 6.00 5.00 - 6.00 320° 5
1594382400 7.00 6.00 - 7.00 330° 15
1594386000 8.00 7.00 - 8.00 350° 15
1594389600 9.00 8.00 - 9.00 340° 15
1594393200 10.00 9.00 - 10.00 360° 15
1594396800 11.00 10.00 - 11.00
1594400400 12.00 11.00 - 12.00 10° 15
1594404000 13.00 12.00 - 13.00
1594407600 14.00 13.00 - 14.00
1594411200 15.00 14.00 - 15.00 300° 15
1594414800 16.00 15.00 - 16.00 330° 5
1594418400 17.00 16.00 - 17.00 320° 5
1594422000 18.00 17.00 - 18.00
1594425600 19.00 18.00 - 19.00 330° 5
1594429200 20.00 19.00 - 20.00 310° 5
1594432800 21.00 20.00 - 21.00 0
1594436400 22.00 21.00 - 22.00 40° 10
1594440000 23.00 22.00 - 23.00 330° 5
1594443600 0.00 23.00 - 0.00 0
1594447200 1.00 0.00 - 1.00 0
1594450800 2.00 1.00 - 2.00 320° 5

Ihre Wetterstation

Fehlt Ihre Wetterstation auf unserem Portal?

Schreiben Sie an network@meteonews.ch

Klima

Wann ist es am wärmsten? Wann regnet es am wenigsten? Unsere Klimadaten geben Auskunft.